Terminal Aerodrome Forecast
Issued by NWS Shreveport, LA

Home | Current Version | Previous Version | Text Only | Print | Product List | Glossary On
Versions: 1 2 3 4 5 6 7 8 9 10 11 12 13
233
FTUS44 KSHV 132342
TAFELD
TAF
KELD 132342Z 1400/1424 07007KT P6SM SKC
     FM140300 09006KT P6SM FEW045 BKN060
      TEMPO 1406/1410 BKN045
     FM141000 12005KT P6SM BKN040 BKN250
     FM141500 14008KT P6SM BKN035 BKN250=

USA.gov is the U.S. government's official web portal to all federal, state and local government web resources and services.